sensor_id;sensor_type;location;lat;lon;timestamp;temperature;humidity
20041;DHT22;10181;48.072;9.884;2022-09-03T00:00:53;14.50;99.90
20041;DHT22;10181;48.072;9.884;2022-09-03T00:03:28;14.50;99.90
20041;DHT22;10181;48.072;9.884;2022-09-03T00:06:16;14.40;99.90
20041;DHT22;10181;48.072;9.884;2022-09-03T00:08:52;14.30;99.90
20041;DHT22;10181;48.072;9.884;2022-09-03T00:11:34;14.20;99.90
20041;DHT22;10181;48.072;9.884;2022-09-03T00:14:18;14.20;99.90
20041;DHT22;10181;48.072;9.884;2022-09-03T00:16:50;14.10;99.90
20041;DHT22;10181;48.072;9.884;2022-09-03T00:19:21;14.00;99.90
20041;DHT22;10181;48.072;9.884;2022-09-03T00:21:58;14.00;99.90
20041;DHT22;10181;48.072;9.884;2022-09-03T00:24:28;14.00;99.90
20041;DHT22;10181;48.072;9.884;2022-09-03T00:27:00;13.90;99.90
20041;DHT22;10181;48.072;9.884;2022-09-03T00:29:45;13.90;99.90
20041;DHT22;10181;48.072;9.884;2022-09-03T00:32:17;13.70;99.90
20041;DHT22;10181;48.072;9.884;2022-09-03T00:34:55;13.60;99.90
20041;DHT22;10181;48.072;9.884;2022-09-03T00:37:22;13.50;99.90
20041;DHT22;10181;48.072;9.884;2022-09-03T00:39:47;13.50;99.90
20041;DHT22;10181;48.072;9.884;2022-09-03T00:47:55;13.40;99.90
20041;DHT22;10181;48.072;9.884;2022-09-03T00:55:46;13.30;99.90
20041;DHT22;10181;48.072;9.884;2022-09-03T01:00:45;13.00;99.90
20041;DHT22;10181;48.072;9.884;2022-09-03T01:03:25;13.00;99.90
20041;DHT22;10181;48.072;9.884;2022-09-03T01:08:38;12.90;99.90
20041;DHT22;10181;48.072;9.884;2022-09-03T01:28:28;12.70;99.90
20041;DHT22;10181;48.072;9.884;2022-09-03T01:33:58;12.50;99.90
20041;DHT22;10181;48.072;9.884;2022-09-03T01:38:55;12.50;99.90
20041;DHT22;10181;48.072;9.884;2022-09-03T01:53:24;12.30;99.90
20041;DHT22;10181;48.072;9.884;2022-09-03T01:56:24;12.30;99.90
20041;DHT22;10181;48.072;9.884;2022-09-03T01:59:06;12.20;99.90
20041;DHT22;10181;48.072;9.884;2022-09-03T02:02:04;12.20;99.90
20041;DHT22;10181;48.072;9.884;2022-09-03T02:04:32;12.10;99.90
20041;DHT22;10181;48.072;9.884;2022-09-03T02:06:59;12.10;99.90
20041;DHT22;10181;48.072;9.884;2022-09-03T02:09:26;12.00;99.90
20041;DHT22;10181;48.072;9.884;2022-09-03T02:11:55;12.00;99.90
20041;DHT22;10181;48.072;9.884;2022-09-03T02:14:25;12.00;99.90
20041;DHT22;10181;48.072;9.884;2022-09-03T02:16:52;12.00;99.90
20041;DHT22;10181;48.072;9.884;2022-09-03T02:19:19;11.90;99.90
20041;DHT22;10181;48.072;9.884;2022-09-03T02:21:51;12.00;99.90
20041;DHT22;10181;48.072;9.884;2022-09-03T02:24:17;11.80;99.90
20041;DHT22;10181;48.072;9.884;2022-09-03T02:26:44;11.80;99.90
20041;DHT22;10181;48.072;9.884;2022-09-03T02:29:09;11.70;99.90
20041;DHT22;10181;48.072;9.884;2022-09-03T02:31:36;11.70;99.90
20041;DHT22;10181;48.072;9.884;2022-09-03T02:34:01;11.80;99.90
20041;DHT22;10181;48.072;9.884;2022-09-03T02:36:31;11.80;99.90
20041;DHT22;10181;48.072;9.884;2022-09-03T02:38:58;11.80;99.90
20041;DHT22;10181;48.072;9.884;2022-09-03T02:41:24;11.80;99.90
20041;DHT22;10181;48.072;9.884;2022-09-03T02:44:01;11.80;99.90
20041;DHT22;10181;48.072;9.884;2022-09-03T02:46:47;11.90;99.90
20041;DHT22;10181;48.072;9.884;2022-09-03T02:49:14;11.90;99.90
20041;DHT22;10181;48.072;9.884;2022-09-03T02:51:42;11.90;99.90
20041;DHT22;10181;48.072;9.884;2022-09-03T02:54:08;11.90;99.90
20041;DHT22;10181;48.072;9.884;2022-09-03T02:56:35;11.80;99.90
20041;DHT22;10181;48.072;9.884;2022-09-03T02:59:01;11.80;99.90
20041;DHT22;10181;48.072;9.884;2022-09-03T03:01:28;11.90;99.90
20041;DHT22;10181;48.072;9.884;2022-09-03T03:03:53;11.90;99.90
20041;DHT22;10181;48.072;9.884;2022-09-03T03:06:19;12.00;99.90
20041;DHT22;10181;48.072;9.884;2022-09-03T03:08:46;12.10;99.90
20041;DHT22;10181;48.072;9.884;2022-09-03T03:11:12;12.10;99.90
20041;DHT22;10181;48.072;9.884;2022-09-03T03:13:43;12.20;99.90
20041;DHT22;10181;48.072;9.884;2022-09-03T03:16:10;12.20;99.90
20041;DHT22;10181;48.072;9.884;2022-09-03T03:18:36;12.30;99.90
20041;DHT22;10181;48.072;9.884;2022-09-03T03:21:07;12.40;99.90
20041;DHT22;10181;48.072;9.884;2022-09-03T03:23:34;12.40;99.90
20041;DHT22;10181;48.072;9.884;2022-09-03T03:26:05;12.50;99.90
20041;DHT22;10181;48.072;9.884;2022-09-03T03:28:32;12.50;99.90
20041;DHT22;10181;48.072;9.884;2022-09-03T03:31:12;12.50;99.90
20041;DHT22;10181;48.072;9.884;2022-09-03T03:33:39;12.50;99.90
20041;DHT22;10181;48.072;9.884;2022-09-03T03:36:13;12.50;99.90
20041;DHT22;10181;48.072;9.884;2022-09-03T03:38:39;12.60;99.90
20041;DHT22;10181;48.072;9.884;2022-09-03T03:41:27;12.60;99.90
20041;DHT22;10181;48.072;9.884;2022-09-03T03:43:54;12.70;99.90
20041;DHT22;10181;48.072;9.884;2022-09-03T03:46:21;12.70;99.90
20041;DHT22;10181;48.072;9.884;2022-09-03T03:48:48;12.70;99.90
20041;DHT22;10181;48.072;9.884;2022-09-03T03:51:14;12.70;99.90
20041;DHT22;10181;48.072;9.884;2022-09-03T03:53:40;12.70;99.90
20041;DHT22;10181;48.072;9.884;2022-09-03T03:56:08;12.80;99.90
20041;DHT22;10181;48.072;9.884;2022-09-03T03:58:34;12.80;99.90
20041;DHT22;10181;48.072;9.884;2022-09-03T04:01:13;12.80;99.90
20041;DHT22;10181;48.072;9.884;2022-09-03T04:03:39;12.80;99.90
20041;DHT22;10181;48.072;9.884;2022-09-03T04:06:06;12.80;99.90
20041;DHT22;10181;48.072;9.884;2022-09-03T04:08:37;12.90;99.90
20041;DHT22;10181;48.072;9.884;2022-09-03T04:11:05;13.00;99.90
20041;DHT22;10181;48.072;9.884;2022-09-03T04:13:35;13.20;99.90
20041;DHT22;10181;48.072;9.884;2022-09-03T04:16:11;13.40;99.90
20041;DHT22;10181;48.072;9.884;2022-09-03T04:18:38;13.50;99.90
20041;DHT22;10181;48.072;9.884;2022-09-03T04:21:08;13.60;99.90
20041;DHT22;10181;48.072;9.884;2022-09-03T04:23:37;13.60;99.90
20041;DHT22;10181;48.072;9.884;2022-09-03T04:26:04;13.70;99.90
20041;DHT22;10181;48.072;9.884;2022-09-03T04:28:31;13.70;99.90
20041;DHT22;10181;48.072;9.884;2022-09-03T04:31:04;13.80;99.90
20041;DHT22;10181;48.072;9.884;2022-09-03T04:33:31;13.80;99.90
20041;DHT22;10181;48.072;9.884;2022-09-03T04:36:21;13.80;99.90
20041;DHT22;10181;48.072;9.884;2022-09-03T04:38:48;13.80;99.90
20041;DHT22;10181;48.072;9.884;2022-09-03T04:41:17;13.80;99.90
20041;DHT22;10181;48.072;9.884;2022-09-03T04:43:43;13.80;99.90
20041;DHT22;10181;48.072;9.884;2022-09-03T04:46:11;13.80;99.90
20041;DHT22;10181;48.072;9.884;2022-09-03T04:48:37;13.80;99.90
20041;DHT22;10181;48.072;9.884;2022-09-03T04:51:12;13.90;99.90
20041;DHT22;10181;48.072;9.884;2022-09-03T04:53:42;13.90;99.90
20041;DHT22;10181;48.072;9.884;2022-09-03T04:56:16;13.90;99.90
20041;DHT22;10181;48.072;9.884;2022-09-03T04:58:43;14.00;99.90
20041;DHT22;10181;48.072;9.884;2022-09-03T05:01:23;13.90;99.90
20041;DHT22;10181;48.072;9.884;2022-09-03T05:03:49;14.00;99.90
20041;DHT22;10181;48.072;9.884;2022-09-03T05:06:20;14.00;99.90
20041;DHT22;10181;48.072;9.884;2022-09-03T05:08:50;14.00;99.90
20041;DHT22;10181;48.072;9.884;2022-09-03T05:11:16;13.90;99.90
20041;DHT22;10181;48.072;9.884;2022-09-03T05:13:42;13.90;99.90
20041;DHT22;10181;48.072;9.884;2022-09-03T05:16:10;13.90;99.90
20041;DHT22;10181;48.072;9.884;2022-09-03T05:18:36;13.90;99.90
20041;DHT22;10181;48.072;9.884;2022-09-03T05:21:07;14.00;99.90
20041;DHT22;10181;48.072;9.884;2022-09-03T05:23:38;14.10;99.90
20041;DHT22;10181;48.072;9.884;2022-09-03T05:26:07;14.20;99.90
20041;DHT22;10181;48.072;9.884;2022-09-03T05:28:38;14.30;99.90
20041;DHT22;10181;48.072;9.884;2022-09-03T05:31:15;14.40;99.90
20041;DHT22;10181;48.072;9.884;2022-09-03T05:33:46;14.50;99.90
20041;DHT22;10181;48.072;9.884;2022-09-03T05:36:18;14.60;99.90
20041;DHT22;10181;48.072;9.884;2022-09-03T05:38:44;14.60;99.90
20041;DHT22;10181;48.072;9.884;2022-09-03T05:41:12;14.70;99.90
20041;DHT22;10181;48.072;9.884;2022-09-03T05:43:39;14.70;99.90
20041;DHT22;10181;48.072;9.884;2022-09-03T05:46:07;14.80;99.90
20041;DHT22;10181;48.072;9.884;2022-09-03T05:48:35;14.80;99.90
20041;DHT22;10181;48.072;9.884;2022-09-03T05:53:36;14.90;99.90
20041;DHT22;10181;48.072;9.884;2022-09-03T05:56:05;14.90;99.90
20041;DHT22;10181;48.072;9.884;2022-09-03T05:58:32;14.90;99.90
20041;DHT22;10181;48.072;9.884;2022-09-03T06:00:58;15.00;99.90
20041;DHT22;10181;48.072;9.884;2022-09-03T06:03:24;15.00;99.90
20041;DHT22;10181;48.072;9.884;2022-09-03T06:05:53;15.00;99.90
20041;DHT22;10181;48.072;9.884;2022-09-03T06:08:20;15.10;99.90
20041;DHT22;10181;48.072;9.884;2022-09-03T06:10:46;15.10;99.90
20041;DHT22;10181;48.072;9.884;2022-09-03T06:13:12;15.20;99.90
20041;DHT22;10181;48.072;9.884;2022-09-03T06:15:38;15.20;99.90
20041;DHT22;10181;48.072;9.884;2022-09-03T06:18:04;15.30;99.90
20041;DHT22;10181;48.072;9.884;2022-09-03T06:20:30;15.40;99.90
20041;DHT22;10181;48.072;9.884;2022-09-03T06:22:57;15.40;99.90
20041;DHT22;10181;48.072;9.884;2022-09-03T06:25:22;15.40;99.90
20041;DHT22;10181;48.072;9.884;2022-09-03T06:27:49;15.40;99.90
20041;DHT22;10181;48.072;9.884;2022-09-03T06:30:15;15.40;99.90
20041;DHT22;10181;48.072;9.884;2022-09-03T06:32:48;15.40;99.90
20041;DHT22;10181;48.072;9.884;2022-09-03T06:35:17;15.40;99.90
20041;DHT22;10181;48.072;9.884;2022-09-03T06:37:43;15.40;99.90
20041;DHT22;10181;48.072;9.884;2022-09-03T06:40:09;15.40;99.90
20041;DHT22;10181;48.072;9.884;2022-09-03T06:42:40;15.40;99.90
20041;DHT22;10181;48.072;9.884;2022-09-03T06:45:09;15.50;99.90
20041;DHT22;10181;48.072;9.884;2022-09-03T06:47:35;15.50;99.90
20041;DHT22;10181;48.072;9.884;2022-09-03T06:50:01;15.60;99.90
20041;DHT22;10181;48.072;9.884;2022-09-03T06:52:27;15.60;99.90
20041;DHT22;10181;48.072;9.884;2022-09-03T06:54:53;15.70;99.90
20041;DHT22;10181;48.072;9.884;2022-09-03T06:57:19;15.80;99.90
20041;DHT22;10181;48.072;9.884;2022-09-03T06:59:45;15.80;99.90
20041;DHT22;10181;48.072;9.884;2022-09-03T07:02:10;15.90;99.90
20041;DHT22;10181;48.072;9.884;2022-09-03T07:04:36;15.90;99.90
20041;DHT22;10181;48.072;9.884;2022-09-03T07:07:01;15.90;99.90
20041;DHT22;10181;48.072;9.884;2022-09-03T07:09:27;16.00;99.90
20041;DHT22;10181;48.072;9.884;2022-09-03T07:11:53;16.00;99.90
20041;DHT22;10181;48.072;9.884;2022-09-03T07:14:20;16.10;99.90
20041;DHT22;10181;48.072;9.884;2022-09-03T07:16:47;16.10;99.90
20041;DHT22;10181;48.072;9.884;2022-09-03T07:19:14;16.10;99.90
20041;DHT22;10181;48.072;9.884;2022-09-03T07:21:41;16.20;99.90
20041;DHT22;10181;48.072;9.884;2022-09-03T07:24:08;16.20;99.90
20041;DHT22;10181;48.072;9.884;2022-09-03T07:26:38;16.30;99.90
20041;DHT22;10181;48.072;9.884;2022-09-03T07:29:06;16.20;99.90
20041;DHT22;10181;48.072;9.884;2022-09-03T07:31:34;16.20;99.90
20041;DHT22;10181;48.072;9.884;2022-09-03T07:34:04;16.20;99.90
20041;DHT22;10181;48.072;9.884;2022-09-03T07:36:49;16.30;99.90
20041;DHT22;10181;48.072;9.884;2022-09-03T07:39:16;16.40;99.90
20041;DHT22;10181;48.072;9.884;2022-09-03T07:41:42;16.40;99.90
20041;DHT22;10181;48.072;9.884;2022-09-03T07:44:11;16.60;99.90
20041;DHT22;10181;48.072;9.884;2022-09-03T07:46:37;16.80;99.90
20041;DHT22;10181;48.072;9.884;2022-09-03T07:49:05;16.90;99.90
20041;DHT22;10181;48.072;9.884;2022-09-03T07:51:32;17.00;99.90
20041;DHT22;10181;48.072;9.884;2022-09-03T07:54:00;17.10;99.90
20041;DHT22;10181;48.072;9.884;2022-09-03T07:56:33;17.10;99.90
20041;DHT22;10181;48.072;9.884;2022-09-03T07:59:00;17.10;99.90
20041;DHT22;10181;48.072;9.884;2022-09-03T08:01:28;17.10;99.90
20041;DHT22;10181;48.072;9.884;2022-09-03T08:03:55;17.10;99.90
20041;DHT22;10181;48.072;9.884;2022-09-03T08:06:23;17.10;99.90
20041;DHT22;10181;48.072;9.884;2022-09-03T08:08:58;17.10;99.90
20041;DHT22;10181;48.072;9.884;2022-09-03T08:11:25;17.10;99.90
20041;DHT22;10181;48.072;9.884;2022-09-03T08:13:57;17.10;99.90
20041;DHT22;10181;48.072;9.884;2022-09-03T08:16:33;17.10;99.90
20041;DHT22;10181;48.072;9.884;2022-09-03T08:18:59;17.10;99.90
20041;DHT22;10181;48.072;9.884;2022-09-03T08:21:25;17.00;99.90
20041;DHT22;10181;48.072;9.884;2022-09-03T08:23:53;17.00;99.90
20041;DHT22;10181;48.072;9.884;2022-09-03T08:26:20;17.10;99.90
20041;DHT22;10181;48.072;9.884;2022-09-03T08:28:46;17.00;99.90
20041;DHT22;10181;48.072;9.884;2022-09-03T08:31:13;17.00;99.90
20041;DHT22;10181;48.072;9.884;2022-09-03T08:33:44;17.00;99.90
20041;DHT22;10181;48.072;9.884;2022-09-03T08:36:21;17.00;99.90
20041;DHT22;10181;48.072;9.884;2022-09-03T08:38:48;17.00;99.90
20041;DHT22;10181;48.072;9.884;2022-09-03T08:41:32;17.10;99.90
20041;DHT22;10181;48.072;9.884;2022-09-03T08:47:15;17.40;99.90
20041;DHT22;10181;48.072;9.884;2022-09-03T08:57:44;18.10;99.90
20041;DHT22;10181;48.072;9.884;2022-09-03T09:00:11;18.20;99.90
20041;DHT22;10181;48.072;9.884;2022-09-03T09:05:29;18.40;99.90
20041;DHT22;10181;48.072;9.884;2022-09-03T09:08:17;18.50;99.90
20041;DHT22;10181;48.072;9.884;2022-09-03T09:10:47;18.60;99.90
20041;DHT22;10181;48.072;9.884;2022-09-03T09:13:36;18.70;99.90
20041;DHT22;10181;48.072;9.884;2022-09-03T09:16:15;18.70;99.90
20041;DHT22;10181;48.072;9.884;2022-09-03T09:21:35;18.50;99.90
20041;DHT22;10181;48.072;9.884;2022-09-03T09:24:06;18.40;99.90
20041;DHT22;10181;48.072;9.884;2022-09-03T09:26:39;18.40;99.90
20041;DHT22;10181;48.072;9.884;2022-09-03T09:29:08;18.40;99.90
20041;DHT22;10181;48.072;9.884;2022-09-03T09:31:39;18.40;99.90
20041;DHT22;10181;48.072;9.884;2022-09-03T09:34:09;18.50;99.90
20041;DHT22;10181;48.072;9.884;2022-09-03T09:36:42;18.70;99.90
20041;DHT22;10181;48.072;9.884;2022-09-03T09:39:10;18.90;99.90
20041;DHT22;10181;48.072;9.884;2022-09-03T09:41:36;19.00;99.90
20041;DHT22;10181;48.072;9.884;2022-09-03T09:44:02;19.10;99.90
20041;DHT22;10181;48.072;9.884;2022-09-03T09:46:37;19.20;99.90
20041;DHT22;10181;48.072;9.884;2022-09-03T09:49:28;19.20;99.90
20041;DHT22;10181;48.072;9.884;2022-09-03T09:52:09;19.20;99.90
20041;DHT22;10181;48.072;9.884;2022-09-03T09:54:36;19.20;99.90
20041;DHT22;10181;48.072;9.884;2022-09-03T09:57:05;19.30;99.90
20041;DHT22;10181;48.072;9.884;2022-09-03T09:59:32;19.30;99.90
20041;DHT22;10181;48.072;9.884;2022-09-03T10:04:45;19.50;99.90
20041;DHT22;10181;48.072;9.884;2022-09-03T10:07:27;19.50;99.90
20041;DHT22;10181;48.072;9.884;2022-09-03T10:10:17;19.60;99.90
20041;DHT22;10181;48.072;9.884;2022-09-03T10:12:50;19.70;99.90
20041;DHT22;10181;48.072;9.884;2022-09-03T10:23:32;20.00;99.90
20041;DHT22;10181;48.072;9.884;2022-09-03T10:26:04;20.10;99.90
20041;DHT22;10181;48.072;9.884;2022-09-03T10:28:33;20.20;99.90
20041;DHT22;10181;48.072;9.884;2022-09-03T10:37:11;20.30;99.90
20041;DHT22;10181;48.072;9.884;2022-09-03T10:51:05;20.20;99.90
20041;DHT22;10181;48.072;9.884;2022-09-03T11:07:02;20.50;99.90
20041;DHT22;10181;48.072;9.884;2022-09-03T11:12:09;20.50;99.90
20041;DHT22;10181;48.072;9.884;2022-09-03T11:14:45;20.50;99.90
20041;DHT22;10181;48.072;9.884;2022-09-03T11:17:15;20.60;99.90
20041;DHT22;10181;48.072;9.884;2022-09-03T11:19:51;20.80;99.90
20041;DHT22;10181;48.072;9.884;2022-09-03T11:22:18;21.10;99.90
20041;DHT22;10181;48.072;9.884;2022-09-03T11:24:50;21.30;99.90
20041;DHT22;10181;48.072;9.884;2022-09-03T11:29:52;21.30;99.90
20041;DHT22;10181;48.072;9.884;2022-09-03T11:32:45;21.20;99.90
20041;DHT22;10181;48.072;9.884;2022-09-03T11:35:38;21.00;99.90
20041;DHT22;10181;48.072;9.884;2022-09-03T11:41:00;20.70;99.90
20041;DHT22;10181;48.072;9.884;2022-09-03T11:43:32;20.40;99.90
20041;DHT22;10181;48.072;9.884;2022-09-03T11:46:27;19.40;99.90
20041;DHT22;10181;48.072;9.884;2022-09-03T11:48:54;18.30;99.90
20041;DHT22;10181;48.072;9.884;2022-09-03T11:56:33;17.20;99.90
20041;DHT22;10181;48.072;9.884;2022-09-03T11:59:17;17.00;99.90
20041;DHT22;10181;48.072;9.884;2022-09-03T12:04:18;16.80;99.90
20041;DHT22;10181;48.072;9.884;2022-09-03T12:07:30;16.90;99.90
20041;DHT22;10181;48.072;9.884;2022-09-03T12:13:00;17.40;99.90
20041;DHT22;10181;48.072;9.884;2022-09-03T12:15:44;17.60;99.90
20041;DHT22;10181;48.072;9.884;2022-09-03T12:18:22;17.80;99.90
20041;DHT22;10181;48.072;9.884;2022-09-03T12:23:33;17.70;99.90
20041;DHT22;10181;48.072;9.884;2022-09-03T12:26:06;17.70;99.90
20041;DHT22;10181;48.072;9.884;2022-09-03T12:28:37;17.80;99.90
20041;DHT22;10181;48.072;9.884;2022-09-03T12:31:14;17.80;99.90
20041;DHT22;10181;48.072;9.884;2022-09-03T12:33:54;17.90;99.90
20041;DHT22;10181;48.072;9.884;2022-09-03T12:36:24;18.00;99.90
20041;DHT22;10181;48.072;9.884;2022-09-03T12:38:50;18.10;99.90
20041;DHT22;10181;48.072;9.884;2022-09-03T12:41:25;18.10;99.90
20041;DHT22;10181;48.072;9.884;2022-09-03T12:43:56;18.20;99.90
20041;DHT22;10181;48.072;9.884;2022-09-03T12:46:24;18.20;99.90
20041;DHT22;10181;48.072;9.884;2022-09-03T12:48:55;18.20;99.90
20041;DHT22;10181;48.072;9.884;2022-09-03T12:51:21;18.20;99.90
20041;DHT22;10181;48.072;9.884;2022-09-03T12:53:47;18.10;99.90
20041;DHT22;10181;48.072;9.884;2022-09-03T12:56:15;18.20;99.90
20041;DHT22;10181;48.072;9.884;2022-09-03T12:58:54;18.20;99.90
20041;DHT22;10181;48.072;9.884;2022-09-03T13:01:31;18.30;99.90
20041;DHT22;10181;48.072;9.884;2022-09-03T13:04:02;18.30;99.90
20041;DHT22;10181;48.072;9.884;2022-09-03T13:09:20;18.80;99.90
20041;DHT22;10181;48.072;9.884;2022-09-03T13:11:47;19.10;99.90
20041;DHT22;10181;48.072;9.884;2022-09-03T13:14:15;19.30;99.90
20041;DHT22;10181;48.072;9.884;2022-09-03T13:22:20;19.80;99.90
20041;DHT22;10181;48.072;9.884;2022-09-03T13:28:13;20.10;99.90
20041;DHT22;10181;48.072;9.884;2022-09-03T13:33:44;19.70;99.90
20041;DHT22;10181;48.072;9.884;2022-09-03T13:36:25;19.50;99.90
20041;DHT22;10181;48.072;9.884;2022-09-03T13:39:06;19.20;99.90
20041;DHT22;10181;48.072;9.884;2022-09-03T13:44:10;18.80;99.90
20041;DHT22;10181;48.072;9.884;2022-09-03T13:46:54;18.80;99.90
20041;DHT22;10181;48.072;9.884;2022-09-03T13:49:32;18.80;99.90
20041;DHT22;10181;48.072;9.884;2022-09-03T13:52:27;18.80;99.90
20041;DHT22;10181;48.072;9.884;2022-09-03T13:54:59;18.80;99.90
20041;DHT22;10181;48.072;9.884;2022-09-03T14:00:20;18.90;99.90
20041;DHT22;10181;48.072;9.884;2022-09-03T14:11:39;18.80;99.90
20041;DHT22;10181;48.072;9.884;2022-09-03T14:17:13;19.20;99.90
20041;DHT22;10181;48.072;9.884;2022-09-03T14:19:59;19.30;99.90
20041;DHT22;10181;48.072;9.884;2022-09-03T14:22:37;19.50;99.90
20041;DHT22;10181;48.072;9.884;2022-09-03T14:25:19;19.60;99.90
20041;DHT22;10181;48.072;9.884;2022-09-03T14:27:45;19.60;99.90
20041;DHT22;10181;48.072;9.884;2022-09-03T14:30:33;19.50;99.90
20041;DHT22;10181;48.072;9.884;2022-09-03T14:33:40;19.50;99.90
20041;DHT22;10181;48.072;9.884;2022-09-03T14:36:21;19.60;99.90
20041;DHT22;10181;48.072;9.884;2022-09-03T14:41:49;19.70;99.90
20041;DHT22;10181;48.072;9.884;2022-09-03T14:44:26;20.00;99.90
20041;DHT22;10181;48.072;9.884;2022-09-03T14:47:06;20.10;99.90
20041;DHT22;10181;48.072;9.884;2022-09-03T14:55:12;20.40;99.90
20041;DHT22;10181;48.072;9.884;2022-09-03T15:00:42;20.40;99.90
20041;DHT22;10181;48.072;9.884;2022-09-03T15:03:23;20.30;99.90
20041;DHT22;10181;48.072;9.884;2022-09-03T15:06:13;20.40;99.90
20041;DHT22;10181;48.072;9.884;2022-09-03T15:11:21;20.50;99.90
20041;DHT22;10181;48.072;9.884;2022-09-03T15:14:13;20.50;99.90
20041;DHT22;10181;48.072;9.884;2022-09-03T15:30:43;20.20;99.90
20041;DHT22;10181;48.072;9.884;2022-09-03T15:33:26;20.00;99.90
20041;DHT22;10181;48.072;9.884;2022-09-03T15:36:19;20.00;99.90
20041;DHT22;10181;48.072;9.884;2022-09-03T15:39:09;20.10;99.90
20041;DHT22;10181;48.072;9.884;2022-09-03T15:41:47;20.30;99.90
20041;DHT22;10181;48.072;9.884;2022-09-03T15:44:16;20.40;99.90
20041;DHT22;10181;48.072;9.884;2022-09-03T15:46:46;20.50;99.90
20041;DHT22;10181;48.072;9.884;2022-09-03T15:54:45;20.60;99.90
20041;DHT22;10181;48.072;9.884;2022-09-03T15:57:50;20.70;99.90
20041;DHT22;10181;48.072;9.884;2022-09-03T16:00:19;20.70;99.90
20041;DHT22;10181;48.072;9.884;2022-09-03T16:03:15;20.80;99.90
20041;DHT22;10181;48.072;9.884;2022-09-03T16:06:04;20.80;99.90
20041;DHT22;10181;48.072;9.884;2022-09-03T16:08:58;20.80;99.90
20041;DHT22;10181;48.072;9.884;2022-09-03T16:11:51;20.90;99.90
20041;DHT22;10181;48.072;9.884;2022-09-03T16:14:42;20.90;99.90
20041;DHT22;10181;48.072;9.884;2022-09-03T16:17:37;21.00;99.90
20041;DHT22;10181;48.072;9.884;2022-09-03T16:20:14;21.00;99.90
20041;DHT22;10181;48.072;9.884;2022-09-03T16:22:56;21.00;99.90
20041;DHT22;10181;48.072;9.884;2022-09-03T16:25:30;21.00;99.90
20041;DHT22;10181;48.072;9.884;2022-09-03T16:28:11;20.90;99.90
20041;DHT22;10181;48.072;9.884;2022-09-03T16:38:54;20.40;99.90
20041;DHT22;10181;48.072;9.884;2022-09-03T16:41:32;20.30;99.90
20041;DHT22;10181;48.072;9.884;2022-09-03T16:44:36;20.20;99.90
20041;DHT22;10181;48.072;9.884;2022-09-03T16:47:11;20.10;99.90
20041;DHT22;10181;48.072;9.884;2022-09-03T16:58:30;19.70;99.90
20041;DHT22;10181;48.072;9.884;2022-09-03T17:07:33;19.30;99.90
20041;DHT22;10181;48.072;9.884;2022-09-03T17:10:38;19.20;99.90
20041;DHT22;10181;48.072;9.884;2022-09-03T17:16:07;19.10;99.90
20041;DHT22;10181;48.072;9.884;2022-09-03T17:26:51;19.00;99.90
20041;DHT22;10181;48.072;9.884;2022-09-03T17:34:51;18.60;99.90
20041;DHT22;10181;48.072;9.884;2022-09-03T17:40:04;18.50;99.90
20041;DHT22;10181;48.072;9.884;2022-09-03T17:45:36;18.40;99.90
20041;DHT22;10181;48.072;9.884;2022-09-03T17:48:28;18.40;99.90
20041;DHT22;10181;48.072;9.884;2022-09-03T17:51:08;18.30;99.90
20041;DHT22;10181;48.072;9.884;2022-09-03T17:53:48;18.20;99.90
20041;DHT22;10181;48.072;9.884;2022-09-03T17:59:18;18.00;99.90
20041;DHT22;10181;48.072;9.884;2022-09-03T18:04:37;17.90;99.90
20041;DHT22;10181;48.072;9.884;2022-09-03T18:07:21;17.70;99.90
20041;DHT22;10181;48.072;9.884;2022-09-03T18:09:51;17.60;99.90
20041;DHT22;10181;48.072;9.884;2022-09-03T18:12:38;17.50;99.90
20041;DHT22;10181;48.072;9.884;2022-09-03T18:15:14;17.40;99.90
20041;DHT22;10181;48.072;9.884;2022-09-03T18:18:09;17.20;99.90
20041;DHT22;10181;48.072;9.884;2022-09-03T18:20:44;17.00;99.90
20041;DHT22;10181;48.072;9.884;2022-09-03T18:23:45;16.80;99.90
20041;DHT22;10181;48.072;9.884;2022-09-03T18:26:33;16.70;99.90
20041;DHT22;10181;48.072;9.884;2022-09-03T18:29:36;16.60;99.90
20041;DHT22;10181;48.072;9.884;2022-09-03T18:32:22;16.50;99.90
20041;DHT22;10181;48.072;9.884;2022-09-03T18:35:07;16.40;99.90
20041;DHT22;10181;48.072;9.884;2022-09-03T18:37:52;16.30;99.90
20041;DHT22;10181;48.072;9.884;2022-09-03T18:40:46;16.20;99.90
20041;DHT22;10181;48.072;9.884;2022-09-03T18:44:01;16.20;99.90
20041;DHT22;10181;48.072;9.884;2022-09-03T18:52:44;16.10;99.90
20041;DHT22;10181;48.072;9.884;2022-09-03T18:58:51;15.90;99.90
20041;DHT22;10181;48.072;9.884;2022-09-03T19:01:39;15.80;99.90
20041;DHT22;10181;48.072;9.884;2022-09-03T19:08:01;15.70;99.90
20041;DHT22;10181;48.072;9.884;2022-09-03T19:13:38;15.60;99.90
20041;DHT22;10181;48.072;9.884;2022-09-03T19:22:33;15.50;99.90
20041;DHT22;10181;48.072;9.884;2022-09-03T19:25:19;15.40;99.90
20041;DHT22;10181;48.072;9.884;2022-09-03T19:28:24;15.30;99.90
20041;DHT22;10181;48.072;9.884;2022-09-03T19:37:37;14.90;99.90
20041;DHT22;10181;48.072;9.884;2022-09-03T19:52:08;14.40;99.90
20041;DHT22;10181;48.072;9.884;2022-09-03T19:54:55;14.40;99.90
20041;DHT22;10181;48.072;9.884;2022-09-03T19:57:41;14.40;99.90
20041;DHT22;10181;48.072;9.884;2022-09-03T20:00:27;14.40;99.90
20041;DHT22;10181;48.072;9.884;2022-09-03T20:03:13;14.40;99.90
20041;DHT22;10181;48.072;9.884;2022-09-03T20:06:00;14.30;99.90
20041;DHT22;10181;48.072;9.884;2022-09-03T20:08:47;14.20;99.90
20041;DHT22;10181;48.072;9.884;2022-09-03T20:11:32;14.20;99.90
20041;DHT22;10181;48.072;9.884;2022-09-03T20:13:58;14.10;99.90
20041;DHT22;10181;48.072;9.884;2022-09-03T20:19:50;14.00;99.90
20041;DHT22;10181;48.072;9.884;2022-09-03T20:22:47;14.00;99.90
20041;DHT22;10181;48.072;9.884;2022-09-03T20:33:30;14.00;99.90
20041;DHT22;10181;48.072;9.884;2022-09-03T20:43:52;13.80;99.90
20041;DHT22;10181;48.072;9.884;2022-09-03T20:49:52;13.70;99.90
20041;DHT22;10181;48.072;9.884;2022-09-03T20:52:40;13.80;99.90
20041;DHT22;10181;48.072;9.884;2022-09-03T20:55:18;13.80;99.90
20041;DHT22;10181;48.072;9.884;2022-09-03T20:58:00;13.80;99.90
20041;DHT22;10181;48.072;9.884;2022-09-03T21:00:58;13.80;99.90
20041;DHT22;10181;48.072;9.884;2022-09-03T21:11:43;13.50;99.90
20041;DHT22;10181;48.072;9.884;2022-09-03T21:14:32;13.50;99.90
20041;DHT22;10181;48.072;9.884;2022-09-03T21:17:05;13.50;99.90
20041;DHT22;10181;48.072;9.884;2022-09-03T21:19:55;13.50;99.90
20041;DHT22;10181;48.072;9.884;2022-09-03T21:25:14;13.60;99.90
20041;DHT22;10181;48.072;9.884;2022-09-03T21:27:50;13.60;99.90
20041;DHT22;10181;48.072;9.884;2022-09-03T21:30:18;13.60;99.90
20041;DHT22;10181;48.072;9.884;2022-09-03T21:32:51;13.60;99.90
20041;DHT22;10181;48.072;9.884;2022-09-03T21:38:22;13.60;99.90
20041;DHT22;10181;48.072;9.884;2022-09-03T21:40:52;13.60;99.90